Aviation Digital Data Service (ADDS)

Output produced by METARs form (2123 UTC 01 October 2022)
found at http://aviationweather.gov/metar/data/
 
EDDP 012120Z AUTO 25014KT CAVOK 10/08 Q1011 NOSIG
TAF EDDP 011700Z 0118/0218 25012KT 9999 SCT035 
     TEMPO 0118/0119 25020G30KT 4000 SHRA SCT014CB 
     BECMG 0207/0209 27015G25KT 
     PROB30 
     TEMPO 0209/0214 27020G30KT SHRA SCT035CB 
     BECMG 0214/0217 27007KT